KLGB/LGB METAR and TAF weather

Enter ICAO airport designator
Station Type Date Time Source
KLGB METAR 2020/02/22 05:53 UTC NOAA

KLGB 220553Z 15005KT 10SM SCT011 SCT026 BKN100 16/13 A3003 RMK AO2 SLP169 60000 T01560128 10178 20150 50006


Station Type Date Time Source
KLGB Decoded METAR 2020/02/22 05:53 UTC NOAA

LONG BEACH AIRPORT, CA, United States (KLGB) 33-49N 118-09W 10M
Feb 22, 2020 - 12:53 AM EST / 2020.02.22 0553 UTC
Wind: from the SSE (150 degrees) at 6 MPH (5 KT):0
Visibility: 10 mile(s):0
Sky conditions: mostly cloudy
Temperature: 60.1 F (15.6 C)
Dew Point: 55.0 F (12.8 C)
Relative Humidity: 83%
Pressure (altimeter): 30.03 in. Hg (1016 hPa)
Pressure tendency: 0.02 inches (0.6 hPa) higher than three hours ago
ob: KLGB 220553Z 15005KT 10SM SCT011 SCT026 BKN100 16/13 A3003 RMK AO2 SLP169 60000 T01560128 10178 20150 50006
cycle: 6

Station Type Date Time Source
KLGB TAF 2020/02/22 06:40 UTC NOAA

TAF KLGB 220538Z 2206/2306 14005KT P6SM SCT025 OVC100
FM221100 12006KT P6SM -SHRA VCTS BKN050 OVC090CB
FM221400 14008KT P6SM -SHRA VCTS BKN040CB
FM222100 25010KT P6SM VCSH OVC025
FM230300 25005KT P6SM OVC025

Example: see airport list